Time;durP1;ratioP1;P1;durP2;ratioP2;P2;SDS_P1;SDS_P2;PMS_P1;PMS_P2;Temp;Humidity;BMP_temperature;BMP_pressure;BME280_temperature;BME280_humidity;BME280_pressure;Samples;Min_cycle;Max_cycle;Signal;HPM_P1;HPM_P2
2022/08/16 00:00:18;;;;;;;4.17;3.87;;;22.00;99.90;;;;;;5016057;28;20410;-69
2022/08/16 00:02:43;;;;;;;4.60;4.20;;;22.00;99.90;;;;;;5014884;28;20419;-70
2022/08/16 00:05:11;;;;;;;3.47;3.17;;;22.10;99.90;;;;;;5015847;28;20422;-70
2022/08/16 00:07:37;;;;;;;4.03;3.73;;;22.10;99.90;;;;;;5015885;28;20172;-71
2022/08/16 00:10:04;;;;;;;3.90;3.60;;;22.00;99.90;;;;;;5015804;28;20501;-70
2022/08/16 00:12:30;;;;;;;4.70;3.87;;;22.00;99.90;;;;;;5015663;28;20918;-70
2022/08/16 00:14:58;;;;;;;4.90;3.50;;;22.00;99.90;;;;;;5015668;28;20442;-70
2022/08/16 00:17:25;;;;;;;4.70;3.80;;;22.10;99.90;;;;;;5014932;28;20411;-71
2022/08/16 00:19:51;;;;;;;4.87;4.07;;;22.10;99.90;;;;;;5014262;28;20438;-71
2022/08/16 00:22:17;;;;;;;3.87;3.57;;;22.00;99.90;;;;;;5014242;28;20418;-69
2022/08/16 00:24:43;;;;;;;4.07;3.70;;;22.00;99.90;;;;;;5015579;28;20501;-70
2022/08/16 00:27:09;;;;;;;4.10;3.70;;;22.00;99.90;;;;;;5015303;28;20197;-70
2022/08/16 00:29:35;;;;;;;4.07;3.67;;;21.90;99.90;;;;;;5015701;28;20407;-70
2022/08/16 00:32:03;;;;;;;3.73;3.43;;;21.90;99.90;;;;;;5014691;28;20950;-70
2022/08/16 00:34:29;;;;;;;3.80;3.50;;;21.90;99.90;;;;;;5015528;28;20231;-71
2022/08/16 00:36:55;;;;;;;4.70;4.20;;;21.80;99.90;;;;;;5014963;28;20458;-71
2022/08/16 00:39:21;;;;;;;4.20;3.90;;;21.80;99.90;;;;;;5015702;28;20164;-70
2022/08/16 00:41:48;;;;;;;3.53;3.23;;;21.70;99.90;;;;;;5015135;28;20176;-70
2022/08/16 00:44:16;;;;;;;5.00;3.70;;;21.70;99.90;;;;;;5015399;28;20229;-70
2022/08/16 00:47:04;;;;;;;4.03;3.73;;;21.70;99.90;;;;;;5014468;28;20530;-69
2022/08/16 00:49:30;;;;;;;4.40;4.00;;;21.70;99.90;;;;;;5015387;28;20394;-71
2022/08/16 00:51:55;;;;;;;4.07;3.37;;;21.70;99.90;;;;;;5015206;28;20805;-70
2022/08/16 00:54:26;;;;;;;4.13;3.83;;;21.70;99.90;;;;;;5014922;28;20453;-70
2022/08/16 00:56:53;;;;;;;3.83;3.53;;;21.70;99.90;;;;;;5014924;28;20192;-71
2022/08/16 00:59:23;;;;;;;4.60;4.20;;;21.60;99.90;;;;;;5015011;28;20923;-71
2022/08/16 01:01:50;;;;;;;4.57;4.17;;;21.50;99.90;;;;;;5014270;28;20441;-71
2022/08/16 01:04:20;;;;;;;4.23;3.83;;;21.40;99.90;;;;;;5014831;28;20498;-71
2022/08/16 01:06:47;;;;;;;4.80;4.30;;;21.40;99.90;;;;;;5004132;28;20455;-71
2022/08/16 01:09:13;;;;;;;4.00;3.70;;;21.30;99.90;;;;;;4995385;28;20486;-71
2022/08/16 01:11:39;;;;;;;4.87;4.47;;;21.30;99.90;;;;;;4995320;28;20416;-71
2022/08/16 01:14:14;;;;;;;4.80;4.43;;;21.40;99.90;;;;;;4995055;28;20279;-70
2022/08/16 01:16:41;;;;;;;4.50;4.10;;;21.40;99.90;;;;;;4993294;28;20451;-70
2022/08/16 01:19:19;;;;;;;4.70;4.30;;;21.40;99.90;;;;;;4995123;28;20454;-70
2022/08/16 01:21:54;;;;;;;4.53;4.13;;;21.30;99.90;;;;;;4995196;28;20392;-70
2022/08/16 01:24:40;;;;;;;4.47;4.07;;;21.30;99.90;;;;;;4994767;28;20764;-70
2022/08/16 01:27:31;;;;;;;4.93;4.10;;;21.40;99.90;;;;;;4994785;28;20434;-69
2022/08/16 01:30:08;;;;;;;4.00;3.60;;;21.30;99.90;;;;;;4995261;28;20737;-71
2022/08/16 01:32:37;;;;;;;5.10;4.70;;;21.30;99.90;;;;;;5007593;28;20433;-71
2022/08/16 01:35:16;;;;;;;4.20;3.90;;;21.30;99.90;;;;;;5014020;28;20457;-70
2022/08/16 01:37:48;;;;;;;4.20;3.90;;;21.30;99.90;;;;;;5048937;23;20513;-68
2022/08/16 01:40:17;;;;;;;5.23;4.73;;;21.20;99.90;;;;;;5017000;28;20415;-68
2022/08/16 01:42:45;;;;;;;4.10;3.70;;;21.10;99.90;;;;;;5014108;28;20888;-68
2022/08/16 01:45:11;;;;;;;4.47;4.17;;;21.00;99.90;;;;;;5013938;28;20391;-68
2022/08/16 01:47:40;;;;;;;4.43;4.03;;;21.00;99.90;;;;;;5012346;28;20429;-68
2022/08/16 01:50:07;;;;;;;5.70;4.20;;;21.00;99.90;;;;;;5013707;28;20902;-68
2022/08/16 01:52:33;;;;;;;4.30;4.00;;;20.90;99.90;;;;;;5013919;28;20406;-68
2022/08/16 01:54:59;;;;;;;4.77;4.07;;;20.90;99.90;;;;;;5013795;28;20541;-67
2022/08/16 01:57:25;;;;;;;4.90;4.50;;;20.90;99.90;;;;;;5013563;28;20510;-68
2022/08/16 01:59:51;;;;;;;4.40;4.00;;;20.90;99.90;;;;;;5013554;28;20156;-68
2022/08/16 02:02:16;;;;;;;5.10;4.70;;;20.90;99.90;;;;;;5025496;28;20406;-68
2022/08/16 02:04:42;;;;;;;4.80;4.40;;;20.90;99.90;;;;;;5033459;28;20240;-68
2022/08/16 02:07:08;;;;;;;4.40;4.00;;;20.90;99.90;;;;;;5033164;28;20191;-68
2022/08/16 02:09:36;;;;;;;4.10;3.70;;;20.90;99.90;;;;;;5033693;28;20182;-68
2022/08/16 02:12:05;;;;;;;5.93;4.57;;;21.00;99.90;;;;;;5033331;28;20491;-68
2022/08/16 02:14:32;;;;;;;5.53;4.87;;;21.00;99.90;;;;;;5033294;28;20926;-68
2022/08/16 02:17:02;;;;;;;7.53;5.40;;;21.10;99.90;;;;;;5032515;28;20418;-67
2022/08/16 02:19:30;;;;;;;4.67;4.30;;;21.10;99.90;;;;;;5033382;28;20379;-68
2022/08/16 02:21:57;;;;;;;6.00;4.30;;;21.10;99.90;;;;;;5033009;28;20402;-68
2022/08/16 02:24:24;;;;;;;4.50;4.13;;;21.20;99.90;;;;;;5031879;28;20468;-67
2022/08/16 02:26:50;;;;;;;4.90;4.40;;;21.30;99.90;;;;;;5032949;28;20622;-68
2022/08/16 02:29:17;;;;;;;4.47;4.07;;;21.40;99.90;;;;;;5033216;28;20438;-68
2022/08/16 02:31:44;;;;;;;5.10;4.60;;;21.40;99.90;;;;;;5032390;28;20179;-68
2022/08/16 02:34:11;;;;;;;5.40;4.50;;;21.20;99.90;;;;;;5032831;28;20437;-68
2022/08/16 02:36:36;;;;;;;4.20;3.90;;;21.20;99.90;;;;;;5032883;28;20798;-68
2022/08/16 02:39:04;;;;;;;5.90;4.80;;;21.30;99.90;;;;;;5032867;28;20404;-68
2022/08/16 02:41:29;;;;;;;4.90;4.33;;;21.50;99.90;;;;;;5032307;28;20182;-68
2022/08/16 02:43:55;;;;;;;5.50;4.07;;;21.50;99.90;;;;;;5032958;28;20398;-67
2022/08/16 02:46:21;;;;;;;5.70;5.20;;;21.50;99.90;;;;;;5032539;28;20198;-70
2022/08/16 02:48:47;;;;;;;5.47;4.67;;;21.50;99.90;;;;;;5032568;28;20178;-68
2022/08/16 02:51:12;;;;;;;4.80;4.40;;;21.40;99.90;;;;;;5033119;28;20532;-68
2022/08/16 02:53:41;;;;;;;4.33;4.00;;;21.50;99.90;;;;;;5032681;28;20195;-68
2022/08/16 02:56:11;;;;;;;6.10;5.53;;;21.50;99.90;;;;;;5032696;28;20201;-68
2022/08/16 02:58:37;;;;;;;4.70;4.20;;;21.40;99.90;;;;;;5034086;28;20754;-70
2022/08/16 03:01:02;;;;;;;5.07;4.67;;;21.40;99.90;;;;;;5036149;28;20500;-69
2022/08/16 03:03:28;;;;;;;5.10;4.60;;;21.30;99.90;;;;;;5035896;28;20472;-67
2022/08/16 03:05:54;;;;;;;5.30;4.80;;;21.20;99.90;;;;;;5036721;28;20726;-68
2022/08/16 03:08:21;;;;;;;4.33;3.87;;;21.20;99.90;;;;;;5036683;28;20175;-68
2022/08/16 03:10:48;;;;;;;5.03;4.53;;;21.20;99.90;;;;;;5036435;28;20596;-68
2022/08/16 03:13:16;;;;;;;4.73;4.23;;;21.30;99.90;;;;;;5036577;28;20410;-68
2022/08/16 03:15:44;;;;;;;4.60;4.20;;;21.30;99.90;;;;;;5036522;28;20394;-69
2022/08/16 03:18:10;;;;;;;4.63;4.20;;;21.30;99.90;;;;;;5034893;28;20417;-68
2022/08/16 03:20:36;;;;;;;5.90;4.60;;;21.30;99.90;;;;;;5051660;28;20410;-69
2022/08/16 03:23:03;;;;;;;4.83;4.43;;;21.20;99.90;;;;;;5036501;28;20406;-69
2022/08/16 03:25:29;;;;;;;6.20;4.90;;;21.20;99.90;;;;;;5036211;28;20250;-69
2022/08/16 03:27:55;;;;;;;4.73;4.27;;;21.20;99.90;;;;;;5036268;28;20480;-69
2022/08/16 03:30:27;;;;;;;5.17;4.77;;;21.10;99.90;;;;;;5036001;28;20405;-69
2022/08/16 03:32:53;;;;;;;5.00;4.60;;;21.10;99.90;;;;;;5035586;28;20171;-68
2022/08/16 03:35:22;;;;;;;5.30;4.80;;;21.00;99.90;;;;;;5036170;28;20530;-68
2022/08/16 03:37:51;;;;;;;4.67;4.10;;;20.90;99.90;;;;;;5035801;28;20243;-68
2022/08/16 03:40:17;;;;;;;5.33;4.50;;;20.80;99.90;;;;;;5036127;28;20493;-69
2022/08/16 03:42:43;;;;;;;5.53;5.03;;;20.80;99.90;;;;;;5035722;28;20399;-68
2022/08/16 03:45:09;;;;;;;4.90;4.50;;;20.80;99.90;;;;;;5035815;28;20405;-69
2022/08/16 03:47:34;;;;;;;4.50;4.20;;;20.80;99.90;;;;;;5035124;28;20274;-69
2022/08/16 03:50:01;;;;;;;6.60;4.93;;;20.80;99.90;;;;;;5035961;28;20430;-68
2022/08/16 03:52:27;;;;;;;4.63;4.23;;;20.70;99.90;;;;;;5035946;28;20597;-68
2022/08/16 03:54:52;;;;;;;4.93;4.53;;;20.70;99.90;;;;;;5035469;28;20584;-69
2022/08/16 03:57:18;;;;;;;5.60;5.10;;;20.70;99.90;;;;;;5035535;28;20273;-68
2022/08/16 03:59:44;;;;;;;5.10;4.70;;;20.70;99.90;;;;;;5035518;28;20178;-68
2022/08/16 04:02:11;;;;;;;5.27;4.77;;;20.60;99.90;;;;;;5034257;28;20203;-68
2022/08/16 04:04:37;;;;;;;5.47;4.83;;;20.50;99.90;;;;;;5035602;28;20198;-68
2022/08/16 04:07:04;;;;;;;4.77;4.37;;;20.40;99.90;;;;;;5035209;28;20426;-68
2022/08/16 04:09:31;;;;;;;5.20;4.80;;;20.50;99.90;;;;;;5035033;28;20828;-68
2022/08/16 04:11:57;;;;;;;4.53;4.10;;;20.50;99.90;;;;;;5034806;28;20406;-68
2022/08/16 04:14:22;;;;;;;5.63;5.00;;;20.50;99.90;;;;;;5035419;28;20970;-68
2022/08/16 04:16:48;;;;;;;5.27;4.77;;;20.50;99.90;;;;;;5035087;28;20214;-68
2022/08/16 04:19:14;;;;;;;4.97;4.57;;;20.60;99.90;;;;;;5035214;28;20171;-68
2022/08/16 04:21:39;;;;;;;5.60;5.00;;;20.60;99.90;;;;;;5035131;28;20217;-68
2022/08/16 04:24:05;;;;;;;5.57;5.17;;;20.70;99.90;;;;;;5035053;28;20224;-69
2022/08/16 04:26:31;;;;;;;7.10;5.10;;;20.60;99.90;;;;;;5034050;28;20183;-67
2022/08/16 04:28:57;;;;;;;4.47;4.07;;;20.60;99.90;;;;;;5034422;28;20170;-70
2022/08/16 04:31:22;;;;;;;5.20;4.20;;;20.60;99.90;;;;;;5023909;28;20262;-68
2022/08/16 04:33:48;;;;;;;6.03;5.53;;;20.80;99.90;;;;;;5034351;28;20817;-68
2022/08/16 04:36:14;;;;;;;5.37;4.30;;;20.80;99.90;;;;;;5034889;28;20207;-69
2022/08/16 04:38:40;;;;;;;4.20;3.90;;;20.90;99.90;;;;;;5035379;28;20576;-69
2022/08/16 04:41:05;;;;;;;4.40;4.10;;;21.00;99.90;;;;;;5034795;28;20805;-68
2022/08/16 04:43:32;;;;;;;5.10;4.60;;;21.10;99.90;;;;;;5034746;28;20603;-69
2022/08/16 04:45:58;;;;;;;5.47;4.30;;;21.20;99.90;;;;;;5034829;28;20292;-68
2022/08/16 04:48:24;;;;;;;5.73;4.87;;;21.30;99.90;;;;;;5034291;28;20500;-67
2022/08/16 04:50:49;;;;;;;5.20;4.50;;;21.30;99.90;;;;;;5034159;28;20856;-69
2022/08/16 04:53:16;;;;;;;7.90;4.80;;;21.40;99.90;;;;;;5034406;28;20205;-68
2022/08/16 04:55:43;;;;;;;5.97;4.60;;;21.40;99.90;;;;;;5034270;28;20163;-68
2022/08/16 04:58:09;;;;;;;4.97;4.57;;;21.40;99.90;;;;;;5034392;28;20406;-68
2022/08/16 05:00:35;;;;;;;4.70;4.17;;;21.30;99.90;;;;;;5034922;28;20455;-69
2022/08/16 05:03:06;;;;;;;5.20;4.70;;;21.30;99.90;;;;;;5032833;28;20421;-68
2022/08/16 05:05:32;;;;;;;5.70;4.87;;;21.30;99.90;;;;;;5034533;28;20394;-69
2022/08/16 05:07:59;;;;;;;5.10;4.60;;;21.40;99.90;;;;;;5034087;28;20426;-69
2022/08/16 05:10:25;;;;;;;6.17;5.13;;;21.20;99.90;;;;;;5034402;28;20402;-69
2022/08/16 05:12:51;;;;;;;5.60;4.50;;;21.30;99.90;;;;;;5034204;28;20401;-69
2022/08/16 05:15:16;;;;;;;5.33;4.93;;;21.40;99.90;;;;;;5034068;28;20449;-69
2022/08/16 05:17:42;;;;;;;5.10;4.47;;;21.50;99.90;;;;;;5033497;28;20193;-68
2022/08/16 05:20:09;;;;;;;8.53;5.37;;;21.60;99.90;;;;;;5034257;28;20167;-69
2022/08/16 05:22:37;;;;;;;6.00;4.33;;;21.70;99.90;;;;;;5034123;28;20167;-69
2022/08/16 05:25:05;;;;;;;4.97;4.57;;;21.70;99.90;;;;;;5034251;28;20464;-69
2022/08/16 05:27:30;;;;;;;5.10;4.30;;;21.70;99.90;;;;;;5033968;28;20430;-69
2022/08/16 05:29:56;;;;;;;5.33;4.83;;;21.70;99.90;;;;;;5033922;28;20510;-69
2022/08/16 05:32:21;;;;;;;5.20;4.70;;;21.70;99.90;;;;;;5033189;28;20179;-68
2022/08/16 05:34:47;;;;;;;4.70;4.20;;;21.70;99.90;;;;;;5033580;28;20695;-69
2022/08/16 05:37:13;;;;;;;4.60;4.20;;;21.70;99.90;;;;;;5048774;28;20238;-69
2022/08/16 05:39:38;;;;;;;4.50;4.10;;;21.90;99.90;;;;;;5034065;28;20583;-69
2022/08/16 05:42:04;;;;;;;4.60;4.17;;;21.90;99.90;;;;;;5034992;28;20163;-69
2022/08/16 05:44:30;;;;;;;5.10;4.70;;;22.00;99.90;;;;;;5033613;28;20544;-69
2022/08/16 05:46:59;;;;;;;5.50;5.00;;;21.90;99.90;;;;;;5033430;28;20497;-69
2022/08/16 05:49:27;;;;;;;6.20;4.70;;;21.90;99.90;;;;;;5033228;28;20258;-69
2022/08/16 05:51:54;;;;;;;5.33;4.50;;;22.10;99.90;;;;;;5033467;28;20402;-69
2022/08/16 05:54:22;;;;;;;4.97;4.47;;;22.20;99.90;;;;;;5033507;28;20449;-69
2022/08/16 05:56:48;;;;;;;7.17;4.77;;;22.20;99.90;;;;;;5033482;28;20906;-69
2022/08/16 05:59:16;;;;;;;4.50;4.20;;;22.20;99.90;;;;;;5031848;28;20438;-69
2022/08/16 06:01:43;;;;;;;4.70;4.30;;;22.40;99.90;;;;;;5022883;28;20175;-69
2022/08/16 06:04:11;;;;;;;4.47;4.07;;;22.50;99.90;;;;;;5023351;28;20417;-68
2022/08/16 06:06:36;;;;;;;5.33;4.60;;;22.50;99.90;;;;;;5023878;28;20450;-69
2022/08/16 06:09:03;;;;;;;5.13;4.63;;;22.60;99.90;;;;;;5023515;28;20914;-69
2022/08/16 06:11:28;;;;;;;4.60;4.20;;;22.60;99.90;;;;;;5024049;28;20628;-70
2022/08/16 06:13:54;;;;;;;5.80;4.60;;;22.50;99.90;;;;;;5023594;28;20453;-69
2022/08/16 06:16:20;;;;;;;4.43;4.07;;;22.40;99.90;;;;;;5023363;28;20580;-69
2022/08/16 06:18:46;;;;;;;4.77;4.27;;;22.30;99.90;;;;;;5023442;28;20221;-69
2022/08/16 06:21:12;;;;;;;5.30;4.80;;;22.20;99.90;;;;;;5023334;28;20635;-69
2022/08/16 06:23:39;;;;;;;5.20;4.80;;;22.20;99.90;;;;;;5023862;28;20189;-69
2022/08/16 06:26:06;;;;;;;4.97;4.57;;;22.30;99.90;;;;;;5023489;28;20814;-69
2022/08/16 06:28:32;;;;;;;5.60;4.70;;;22.30;99.90;;;;;;5023617;28;20836;-69
2022/08/16 06:30:58;;;;;;;6.23;4.70;;;22.30;99.90;;;;;;5023322;28;20828;-69
2022/08/16 06:33:24;;;;;;;5.63;5.13;;;22.40;99.90;;;;;;5023835;28;20475;-69
2022/08/16 06:35:51;;;;;;;5.87;5.27;;;22.40;99.90;;;;;;5027268;28;20414;-69
2022/08/16 06:38:17;;;;;;;5.07;4.50;;;22.40;99.90;;;;;;5027732;28;20693;-69
2022/08/16 06:40:42;;;;;;;4.70;4.30;;;22.50;99.90;;;;;;5027418;28;20911;-69
2022/08/16 06:43:08;;;;;;;4.97;4.47;;;22.60;99.90;;;;;;5027394;28;20765;-69
2022/08/16 06:45:36;;;;;;;5.90;5.30;;;22.70;99.90;;;;;;5025817;28;20190;-69
2022/08/16 06:48:03;;;;;;;5.53;5.03;;;22.80;99.90;;;;;;5026804;28;20686;-69
2022/08/16 06:50:29;;;;;;;6.67;5.17;;;22.70;99.90;;;;;;5027288;28;20556;-69
2022/08/16 06:52:55;;;;;;;5.37;4.83;;;22.70;99.90;;;;;;5026692;28;20707;-69
2022/08/16 06:55:20;;;;;;;7.03;5.23;;;22.90;99.90;;;;;;5027204;28;20194;-69
2022/08/16 06:57:46;;;;;;;5.50;5.00;;;22.90;99.90;;;;;;5027154;28;20198;-69
2022/08/16 07:00:14;;;;;;;6.30;4.70;;;23.10;99.90;;;;;;5027155;28;20532;-69
2022/08/16 07:02:43;;;;;;;8.17;6.27;;;23.20;99.90;;;;;;5025882;28;20420;-69
2022/08/16 07:05:11;;;;;;;5.77;5.27;;;23.20;99.90;;;;;;5027100;28;20421;-69
2022/08/16 07:07:38;;;;;;;6.20;5.60;;;23.40;99.90;;;;;;5027026;28;20451;-69
2022/08/16 07:10:05;;;;;;;6.33;5.70;;;23.30;99.90;;;;;;5026783;28;20488;-69
2022/08/16 07:12:31;;;;;;;7.73;6.40;;;23.30;99.90;;;;;;5027124;28;20413;-69
2022/08/16 07:14:57;;;;;;;6.20;5.40;;;23.20;99.90;;;;;;5026744;28;20450;-69
2022/08/16 07:17:23;;;;;;;5.47;5.00;;;23.40;99.90;;;;;;5033574;28;20539;-69
2022/08/16 07:19:49;;;;;;;5.83;5.33;;;23.60;99.90;;;;;;5034766;28;20163;-70
2022/08/16 07:22:16;;;;;;;5.23;4.83;;;23.50;99.90;;;;;;5033032;28;20449;-69
2022/08/16 07:24:44;;;;;;;5.80;5.30;;;23.70;99.90;;;;;;5027157;28;20901;-69
2022/08/16 07:27:10;;;;;;;5.30;4.90;;;23.90;99.90;;;;;;5026538;28;20428;-69
2022/08/16 07:29:37;;;;;;;8.90;4.80;;;24.10;99.90;;;;;;5026522;28;20929;-69
2022/08/16 07:32:04;;;;;;;5.33;4.80;;;24.20;99.90;;;;;;5028741;28;20921;-69
2022/08/16 07:34:30;;;;;;;5.80;5.30;;;24.10;99.90;;;;;;5025931;28;20461;-68
2022/08/16 07:36:58;;;;;;;6.30;5.23;;;24.10;99.90;;;;;;5026331;28;20465;-69
2022/08/16 07:39:23;;;;;;;5.57;5.17;;;24.10;99.90;;;;;;5026769;28;20471;-69
2022/08/16 07:41:49;;;;;;;5.43;4.93;;;24.20;99.90;;;;;;5024908;28;20414;-68
2022/08/16 07:44:14;;;;;;;6.10;5.30;;;24.40;99.90;;;;;;5026452;28;20206;-68
2022/08/16 07:46:40;;;;;;;5.57;5.17;;;24.50;99.90;;;;;;5026684;28;20234;-68
2022/08/16 07:49:06;;;;;;;7.90;5.13;;;24.50;99.90;;;;;;5025622;28;20180;-69
2022/08/16 07:51:35;;;;;;;5.80;5.40;;;24.70;99.90;;;;;;5026289;28;20183;-68
2022/08/16 07:54:02;;;;;;;7.20;6.00;;;24.30;99.90;;;;;;5026247;28;20614;-69
2022/08/16 07:56:28;;;;;;;6.20;5.03;;;24.30;99.90;;;;;;5026223;28;20537;-69
2022/08/16 07:58:55;;;;;;;6.33;5.73;;;24.30;99.90;;;;;;5026486;28;20460;-69
2022/08/16 08:01:22;;;;;;;6.20;5.70;;;24.30;99.90;;;;;;5044352;22;20483;-71
2022/08/16 08:03:48;;;;;;;5.67;5.17;;;24.40;99.90;;;;;;5014378;28;20530;-71
2022/08/16 08:06:18;;;;;;;5.77;5.20;;;24.70;99.90;;;;;;5016151;28;20403;-69
2022/08/16 08:08:44;;;;;;;5.77;5.27;;;24.90;99.90;;;;;;5015894;28;20911;-70
2022/08/16 08:11:09;;;;;;;6.80;6.10;;;25.10;99.90;;;;;;5016242;28;20414;-70
2022/08/16 08:13:35;;;;;;;6.70;6.20;;;25.10;99.60;;;;;;5016072;28;20198;-70
2022/08/16 08:16:01;;;;;;;7.50;5.10;;;25.20;99.70;;;;;;5015583;28;20211;-70
2022/08/16 08:18:28;;;;;;;5.90;5.40;;;25.40;99.50;;;;;;5015032;28;20414;-70
2022/08/16 08:20:54;;;;;;;6.00;5.50;;;25.70;99.00;;;;;;5015639;28;20559;-70
2022/08/16 08:23:21;;;;;;;5.33;4.93;;;25.80;98.60;;;;;;5015490;28;20407;-71
2022/08/16 08:25:47;;;;;;;6.87;5.27;;;26.30;98.80;;;;;;5015906;28;20753;-71
2022/08/16 08:28:13;;;;;;;5.67;5.10;;;26.20;97.90;;;;;;5015964;28;20491;-71
2022/08/16 08:30:39;;;;;;;7.20;6.50;;;26.20;97.40;;;;;;5015196;28;20419;-71
2022/08/16 08:33:05;;;;;;;7.40;4.97;;;26.10;99.10;;;;;;5014867;28;20407;-71
2022/08/16 08:35:31;;;;;;;5.67;5.27;;;26.00;99.30;;;;;;5015278;28;20442;-72
2022/08/16 08:37:57;;;;;;;6.93;5.80;;;25.70;99.60;;;;;;5015834;28;20165;-71
2022/08/16 08:40:25;;;;;;;6.47;5.87;;;25.00;99.90;;;;;;5015292;28;20423;-71
2022/08/16 08:42:51;;;;;;;6.93;5.83;;;25.10;99.90;;;;;;5015494;28;20422;-71
2022/08/16 08:45:17;;;;;;;6.63;5.87;;;25.00;99.90;;;;;;5015487;28;20403;-71
2022/08/16 08:47:45;;;;;;;6.27;5.77;;;24.70;99.90;;;;;;5015121;28;20179;-70
2022/08/16 08:50:13;;;;;;;7.93;6.67;;;24.60;99.90;;;;;;5015392;28;20445;-71
2022/08/16 08:52:38;;;;;;;6.07;5.57;;;25.20;99.90;;;;;;5014974;28;20488;-70
2022/08/16 08:55:07;;;;;;;5.60;5.10;;;25.40;99.90;;;;;;5014799;28;20494;-72
2022/08/16 08:57:32;;;;;;;6.53;5.83;;;25.50;99.90;;;;;;5016580;28;20191;-72
2022/08/16 08:59:58;;;;;;;6.13;5.40;;;25.70;99.90;;;;;;5006423;28;20442;-68
2022/08/16 09:02:24;;;;;;;7.67;5.70;;;25.70;99.80;;;;;;5004655;28;20168;-71
2022/08/16 09:04:49;;;;;;;5.17;4.60;;;25.80;99.50;;;;;;5005611;28;20651;-71
2022/08/16 09:07:16;;;;;;;8.73;6.23;;;25.80;99.30;;;;;;5005971;28;20187;-71
2022/08/16 09:09:41;;;;;;;6.27;5.67;;;25.70;99.40;;;;;;5014794;28;20637;-72
2022/08/16 09:12:07;;;;;;;8.23;6.77;;;26.00;99.50;;;;;;5015408;28;20406;-71
2022/08/16 09:14:34;;;;;;;6.23;5.73;;;25.80;99.60;;;;;;5014511;28;20196;-71
2022/08/16 09:17:00;;;;;;;6.93;5.77;;;26.00;99.60;;;;;;5013498;28;20403;-70
2022/08/16 09:19:26;;;;;;;6.70;5.97;;;26.20;99.30;;;;;;5013785;28;20407;-71
2022/08/16 09:21:51;;;;;;;7.20;6.47;;;26.30;98.70;;;;;;5014780;28;20430;-71
2022/08/16 09:24:17;;;;;;;6.70;6.00;;;26.40;98.40;;;;;;5015227;28;20243;-70
2022/08/16 09:26:43;;;;;;;6.67;6.00;;;26.40;98.50;;;;;;5015208;28;20164;-70
2022/08/16 09:29:09;;;;;;;7.60;6.27;;;26.20;98.50;;;;;;5014656;28;20418;-70
2022/08/16 09:31:34;;;;;;;7.43;6.63;;;26.20;98.50;;;;;;5014434;28;20190;-69
2022/08/16 09:34:01;;;;;;;7.50;6.80;;;25.60;99.30;;;;;;5013773;28;20672;-70
2022/08/16 09:36:28;;;;;;;7.23;6.53;;;25.60;99.70;;;;;;5014566;28;20251;-69
2022/08/16 09:38:55;;;;;;;6.80;5.60;;;25.60;99.50;;;;;;5014482;28;20438;-70
2022/08/16 09:41:21;;;;;;;7.30;6.00;;;25.80;99.70;;;;;;5014114;28;20427;-70
2022/08/16 09:43:46;;;;;;;7.90;6.00;;;26.10;99.00;;;;;;5014436;28;20414;-70
2022/08/16 09:46:12;;;;;;;6.80;5.70;;;26.00;99.10;;;;;;5014258;28;20524;-71
2022/08/16 09:48:40;;;;;;;6.77;6.07;;;26.20;98.30;;;;;;5013672;28;20172;-70
2022/08/16 09:51:08;;;;;;;7.00;6.33;;;26.20;98.20;;;;;;5012797;28;20207;-69
2022/08/16 09:53:34;;;;;;;6.73;6.20;;;26.60;97.90;;;;;;5014118;28;20827;-68
2022/08/16 09:56:00;;;;;;;7.40;6.10;;;27.00;97.10;;;;;;5013865;28;20442;-70
2022/08/16 09:58:26;;;;;;;6.40;5.80;;;27.20;96.10;;;;;;5014218;28;20517;-70
2022/08/16 10:00:53;;;;;;;7.80;5.67;;;27.30;95.50;;;;;;5014022;28;20441;-71
2022/08/16 10:03:19;;;;;;;7.83;7.03;;;27.00;95.40;;;;;;5012811;28;20168;-71
2022/08/16 10:05:45;;;;;;;6.40;5.80;;;26.50;96.20;;;;;;5014380;28;20407;-70
2022/08/16 10:08:12;;;;;;;6.73;6.00;;;26.50;96.70;;;;;;5013236;28;20775;-72
2022/08/16 10:10:41;;;;;;;5.67;5.17;;;26.00;97.10;;;;;;5013946;28;20423;-70
2022/08/16 10:13:13;;;;;;;8.30;6.17;;;25.70;97.20;;;;;;5014035;28;20407;-70
2022/08/16 10:15:45;;;;;;;7.30;5.90;;;25.80;97.10;;;;;;5013033;28;20446;-70
2022/08/16 10:18:12;;;;;;;6.53;5.90;;;26.20;96.90;;;;;;5000963;28;20416;-69
2022/08/16 10:20:42;;;;;;;6.20;5.60;;;26.20;96.90;;;;;;4994209;28;20428;-69
2022/08/16 10:23:10;;;;;;;6.40;5.80;;;26.40;96.70;;;;;;4994291;28;20415;-70
2022/08/16 10:25:39;;;;;;;6.00;5.30;;;26.50;96.00;;;;;;4993991;28;20404;-70
2022/08/16 10:28:05;;;;;;;6.60;5.90;;;25.90;96.70;;;;;;4993987;28;20854;-71
2022/08/16 10:30:31;;;;;;;7.03;6.33;;;25.90;96.80;;;;;;4993916;28;20424;-71
2022/08/16 10:32:57;;;;;;;5.80;5.40;;;26.50;96.30;;;;;;4999981;28;20195;-69
2022/08/16 10:35:24;;;;;;;8.10;5.97;;;27.00;95.40;;;;;;5013548;28;20206;-72
2022/08/16 10:37:50;;;;;;;6.37;5.87;;;26.90;95.30;;;;;;5013650;28;20468;-71
2022/08/16 10:40:17;;;;;;;9.23;5.93;;;27.30;95.20;;;;;;5013595;28;20427;-71
2022/08/16 10:42:43;;;;;;;6.40;5.80;;;27.70;93.90;;;;;;5013810;28;20418;-72
2022/08/16 10:45:09;;;;;;;7.53;5.97;;;27.90;94.00;;;;;;5013574;28;20980;-70
2022/08/16 10:47:35;;;;;;;5.50;5.00;;;28.10;93.50;;;;;;5013449;28;20187;-71
2022/08/16 10:50:03;;;;;;;6.30;5.70;;;28.70;93.10;;;;;;5013110;28;20426;-71
2022/08/16 10:52:30;;;;;;;5.93;5.33;;;28.60;92.50;;;;;;5013330;28;20414;-70
2022/08/16 10:54:55;;;;;;;5.73;5.23;;;28.20;92.40;;;;;;5013287;28;20446;-69
2022/08/16 10:57:21;;;;;;;6.30;5.70;;;28.10;92.70;;;;;;5013246;28;20456;-71
2022/08/16 10:59:46;;;;;;;6.80;6.20;;;28.00;92.90;;;;;;5013412;28;20168;-70
2022/08/16 11:02:13;;;;;;;6.13;5.53;;;28.30;92.40;;;;;;5015243;28;20529;-71
2022/08/16 11:04:38;;;;;;;5.90;5.40;;;28.40;91.60;;;;;;5011555;28;20207;-72
2022/08/16 11:07:04;;;;;;;6.83;5.40;;;28.50;92.10;;;;;;5013253;28;20415;-68
2022/08/16 11:09:30;;;;;;;5.73;5.23;;;29.30;90.60;;;;;;5013478;28;20179;-71
2022/08/16 11:11:56;;;;;;;5.30;4.90;;;30.30;87.40;;;;;;5013058;28;20207;-70
2022/08/16 11:14:23;;;;;;;6.00;5.50;;;31.10;84.10;;;;;;5013210;28;20450;-72
2022/08/16 11:16:48;;;;;;;5.70;5.20;;;32.30;79.80;;;;;;5013115;28;20647;-70
2022/08/16 11:19:15;;;;;;;5.20;4.70;;;33.20;74.80;;;;;;5013100;28;20505;-71
2022/08/16 11:21:42;;;;;;;4.73;4.43;;;33.10;73.30;;;;;;5016073;28;20192;-71
2022/08/16 11:24:08;;;;;;;8.20;4.80;;;33.40;72.90;;;;;;5016127;28;20411;-70
2022/08/16 11:26:33;;;;;;;5.63;5.13;;;32.70;72.80;;;;;;5017233;28;20735;-70
2022/08/16 11:28:59;;;;;;;5.03;4.53;;;33.50;72.60;;;;;;5016986;28;20172;-71
2022/08/16 11:31:25;;;;;;;4.83;4.43;;;33.70;68.90;;;;;;5016546;28;20192;-70
2022/08/16 11:33:51;;;;;;;5.23;4.77;;;35.00;65.40;;;;;;5016145;28;20287;-71
2022/08/16 11:36:18;;;;;;;5.47;4.60;;;34.40;64.80;;;;;;5016700;28;20466;-71
2022/08/16 11:38:44;;;;;;;4.87;4.43;;;34.70;63.80;;;;;;5016821;28;20259;-71
2022/08/16 11:41:10;;;;;;;4.60;4.20;;;35.20;60.80;;;;;;5016792;28;20419;-70
2022/08/16 11:43:39;;;;;;;7.00;4.83;;;33.10;64.90;;;;;;5016505;28;20399;-71
2022/08/16 11:46:09;;;;;;;5.60;5.10;;;32.10;68.10;;;;;;5016452;28;20171;-71
2022/08/16 11:48:35;;;;;;;5.10;4.30;;;32.50;68.50;;;;;;5016347;28;20418;-70
2022/08/16 11:51:01;;;;;;;5.33;4.80;;;34.50;64.60;;;;;;5016358;28;20786;-71
2022/08/16 11:53:28;;;;;;;4.80;4.40;;;35.60;59.50;;;;;;5016006;28;20403;-70
2022/08/16 11:55:54;;;;;;;6.27;4.63;;;33.50;62.40;;;;;;5016371;28;20490;-71
2022/08/16 11:58:22;;;;;;;5.63;5.13;;;30.90;68.80;;;;;;5016416;28;20407;-69
2022/08/16 12:00:48;;;;;;;4.63;4.20;;;30.40;72.50;;;;;;5016946;28;20975;-71
2022/08/16 12:03:13;;;;;;;5.20;4.43;;;32.30;68.20;;;;;;5015137;28;20461;-70
2022/08/16 12:05:42;;;;;;;5.63;4.43;;;32.90;64.70;;;;;;5016899;28;20256;-70
2022/08/16 12:08:08;;;;;;;6.70;4.40;;;30.90;68.70;;;;;;5018120;28;20539;-69
2022/08/16 12:10:36;;;;;;;5.80;5.20;;;30.80;70.40;;;;;;5018835;28;20434;-72
2022/08/16 12:13:01;;;;;;;5.10;4.70;;;32.00;67.90;;;;;;5016085;28;20431;-71
2022/08/16 12:15:27;;;;;;;5.93;5.10;;;32.50;65.70;;;;;;5015902;28;20509;-71
2022/08/16 12:17:54;;;;;;;5.07;4.37;;;33.00;65.10;;;;;;5015535;28;20168;-71
2022/08/16 12:20:24;;;;;;;5.47;4.37;;;33.50;62.90;;;;;;5015482;28;20537;-70
2022/08/16 12:22:51;;;;;;;4.63;4.10;;;35.00;60.50;;;;;;5015614;28;20743;-71
2022/08/16 12:25:18;;;;;;;6.73;4.87;;;36.10;57.20;;;;;;5015577;28;20478;-71
2022/08/16 12:27:46;;;;;;;4.00;3.70;;;36.50;55.60;;;;;;5015500;28;20494;-72
2022/08/16 12:30:15;;;;;;;4.50;4.10;;;35.80;56.90;;;;;;5015441;28;20510;-71
2022/08/16 12:32:41;;;;;;;4.50;4.10;;;36.60;54.50;;;;;;5014506;28;20407;-72
2022/08/16 12:35:10;;;;;;;5.30;3.97;;;37.20;53.40;;;;;;5015112;28;20983;-71
2022/08/16 12:37:37;;;;;;;4.30;4.00;;;34.40;56.60;;;;;;5015607;28;20602;-70
2022/08/16 12:40:06;;;;;;;4.63;4.23;;;33.60;58.40;;;;;;5015634;28;20920;-71
2022/08/16 12:42:33;;;;;;;4.83;4.20;;;34.20;57.60;;;;;;5015210;28;20407;-71
2022/08/16 12:44:59;;;;;;;3.83;3.53;;;35.90;56.10;;;;;;5015215;28;20403;-71